createdAt,value
2023-01-22T00:01:25.694Z,21.17
2023-01-22T00:03:55.058Z,21.85
2023-01-22T00:06:24.498Z,18.52
2023-01-22T00:08:54.229Z,15.48
2023-01-22T00:11:22.504Z,19.58
2023-01-22T00:13:50.895Z,21.60
2023-01-22T00:16:20.271Z,19.92
2023-01-22T00:18:49.913Z,28.42
2023-01-22T00:21:18.609Z,19.52
2023-01-22T00:23:47.102Z,17.17
2023-01-22T00:26:18.343Z,21.67
2023-01-22T00:28:47.508Z,25.45
2023-01-22T00:31:17.787Z,19.15
2023-01-22T00:33:47.519Z,25.75
2023-01-22T00:36:20.139Z,22.58
2023-01-22T00:38:50.221Z,18.37
2023-01-22T00:41:20.266Z,18.67
2023-01-22T00:43:50.101Z,17.30
2023-01-22T00:46:20.438Z,18.80
2023-01-22T00:48:50.150Z,21.50
2023-01-22T00:51:20.173Z,21.05
2023-01-22T00:53:48.749Z,16.10
2023-01-22T00:56:18.246Z,17.48
2023-01-22T00:58:47.153Z,20.52
2023-01-22T01:01:16.761Z,13.70
2023-01-22T01:03:45.309Z,17.83
2023-01-22T01:06:17.232Z,14.98
2023-01-22T01:08:49.495Z,20.25
2023-01-22T01:11:21.807Z,15.85
2023-01-22T01:13:51.458Z,11.20
2023-01-22T01:16:24.593Z,14.38
2023-01-22T01:18:53.454Z,11.80
2023-01-22T01:21:22.042Z,20.67
2023-01-22T01:23:51.696Z,14.90
2023-01-22T01:26:20.233Z,14.15
2023-01-22T01:28:49.163Z,19.98
2023-01-22T01:31:18.277Z,12.23
2023-01-22T01:33:47.505Z,11.32
2023-01-22T01:36:21.237Z,19.55
2023-01-22T01:38:57.665Z,14.07
2023-01-22T01:41:28.138Z,7.97
2023-01-22T01:44:16.128Z,14.00
2023-01-22T01:46:49.920Z,12.02
2023-01-22T01:49:27.058Z,12.00
2023-01-22T01:51:59.179Z,12.00
2023-01-22T01:54:29.914Z,12.32
2023-01-22T01:57:07.293Z,14.93
2023-01-22T01:59:36.621Z,13.23
2023-01-22T02:02:05.338Z,12.15
2023-01-22T02:04:34.074Z,10.70
2023-01-22T02:07:03.301Z,14.70
2023-01-22T02:09:35.337Z,12.07
2023-01-22T02:12:04.485Z,10.60
2023-01-22T02:14:35.950Z,9.80
2023-01-22T02:17:08.720Z,14.65
2023-01-22T02:19:37.318Z,8.55
2023-01-22T02:22:14.284Z,6.30
2023-01-22T02:24:42.871Z,8.68
2023-01-22T02:27:12.292Z,9.57
2023-01-22T02:29:42.012Z,10.90
2023-01-22T02:32:12.478Z,8.85
2023-01-22T02:34:41.042Z,9.40
2023-01-22T02:37:12.616Z,11.52
2023-01-22T02:39:41.333Z,8.38
2023-01-22T02:42:10.171Z,9.75
2023-01-22T02:44:39.845Z,8.98
2023-01-22T02:47:08.390Z,8.05
2023-01-22T02:49:37.075Z,6.43
2023-01-22T02:52:05.880Z,8.43
2023-01-22T02:54:35.536Z,9.30
2023-01-22T02:57:04.091Z,10.05
2023-01-22T02:59:32.632Z,12.15
2023-01-22T03:02:01.149Z,9.73
2023-01-22T03:04:29.842Z,8.80
2023-01-22T03:06:58.380Z,5.82
2023-01-22T03:09:29.941Z,8.18
2023-01-22T03:12:00.394Z,6.18
2023-01-22T03:14:50.498Z,8.00
2023-01-22T03:17:37.833Z,5.35
2023-01-22T03:20:25.120Z,6.43
2023-01-22T03:22:54.874Z,11.68
2023-01-22T03:25:23.384Z,10.40
2023-01-22T03:28:16.457Z,10.18
2023-01-22T03:30:48.708Z,8.38
2023-01-22T03:33:17.391Z,6.13
2023-01-22T03:35:49.982Z,5.15
2023-01-22T03:38:21.732Z,6.85
2023-01-22T03:40:50.059Z,11.48
2023-01-22T03:43:19.666Z,7.93
2023-01-22T03:45:48.007Z,8.70
2023-01-22T03:48:20.902Z,8.93
2023-01-22T03:50:49.859Z,7.28
2023-01-22T03:53:18.549Z,4.53
2023-01-22T03:55:47.086Z,7.00
2023-01-22T03:58:15.602Z,6.60
2023-01-22T04:00:46.721Z,9.90
2023-01-22T04:03:14.975Z,7.93
2023-01-22T04:05:44.247Z,7.85
2023-01-22T04:08:13.886Z,7.30
2023-01-22T04:10:45.948Z,5.80
2023-01-22T04:13:15.452Z,8.93
2023-01-22T04:15:47.958Z,5.78
2023-01-22T04:18:36.706Z,6.22
2023-01-22T04:21:19.447Z,6.38
2023-01-22T04:23:54.664Z,6.60
2023-01-22T04:26:23.277Z,7.53
2023-01-22T04:28:51.661Z,4.53
2023-01-22T04:31:24.275Z,7.20
2023-01-22T04:34:15.781Z,6.63
2023-01-22T04:37:07.317Z,4.80
2023-01-22T04:39:37.093Z,10.05
2023-01-22T04:42:06.377Z,6.00
2023-01-22T04:44:34.996Z,4.95
2023-01-22T04:47:04.542Z,5.95
2023-01-22T04:49:33.089Z,3.97
2023-01-22T04:52:01.901Z,5.78
2023-01-22T04:54:31.707Z,5.50
2023-01-22T04:56:59.936Z,4.57
2023-01-22T04:59:28.834Z,7.57
2023-01-22T05:01:59.873Z,4.15
2023-01-22T05:04:29.657Z,4.43
2023-01-22T05:06:58.167Z,3.55
2023-01-22T05:09:27.694Z,4.13
2023-01-22T05:12:00.381Z,5.60
2023-01-22T05:14:33.533Z,3.72
2023-01-22T05:17:03.639Z,3.60
2023-01-22T05:19:33.309Z,4.20
2023-01-22T05:22:01.954Z,5.63
2023-01-22T05:24:32.844Z,5.22
2023-01-22T05:27:01.667Z,3.33
2023-01-22T05:29:36.161Z,5.65
2023-01-22T05:32:15.611Z,4.45
2023-01-22T05:34:50.320Z,5.28
2023-01-22T05:37:18.866Z,6.75
2023-01-22T05:39:47.657Z,5.25
2023-01-22T05:42:17.653Z,6.18
2023-01-22T05:44:49.537Z,4.60
2023-01-22T05:47:21.544Z,3.65
2023-01-22T05:50:00.424Z,6.03
2023-01-22T05:52:29.305Z,3.17
2023-01-22T05:54:59.854Z,6.07
2023-01-22T05:57:32.986Z,3.55
2023-01-22T06:00:01.664Z,5.90
2023-01-22T06:02:32.625Z,3.90
2023-01-22T06:05:03.940Z,3.70
2023-01-22T06:07:34.082Z,13.45
2023-01-22T06:10:03.005Z,4.03
2023-01-22T06:12:31.811Z,7.65
2023-01-22T06:15:01.046Z,3.92
2023-01-22T06:17:29.685Z,4.75
2023-01-22T06:20:03.986Z,4.47
2023-01-22T06:22:34.425Z,4.95
2023-01-22T06:25:04.941Z,7.25
2023-01-22T06:27:52.323Z,3.25
2023-01-22T06:30:21.016Z,8.50
2023-01-22T06:32:53.266Z,3.83
2023-01-22T06:35:24.269Z,5.57
2023-01-22T06:37:53.439Z,3.42
2023-01-22T06:40:22.012Z,3.67
2023-01-22T06:42:51.852Z,5.05
2023-01-22T06:45:22.413Z,5.05
2023-01-22T06:47:57.355Z,4.90
2023-01-22T06:50:27.072Z,3.70
2023-01-22T06:52:55.677Z,3.42
2023-01-22T06:55:24.302Z,5.50
2023-01-22T06:57:55.753Z,4.80
2023-01-22T07:00:24.669Z,5.65
2023-01-22T07:02:53.181Z,2.88
2023-01-22T07:05:23.152Z,4.95
2023-01-22T07:07:54.772Z,4.85
2023-01-22T07:10:23.673Z,4.25
2023-01-22T07:12:56.369Z,6.10
2023-01-22T07:15:24.654Z,4.57
2023-01-22T07:17:53.509Z,5.07
2023-01-22T07:20:23.549Z,6.15
2023-01-22T07:22:53.331Z,5.95
2023-01-22T07:25:21.544Z,5.60
2023-01-22T07:27:50.036Z,5.78
2023-01-22T07:30:19.550Z,6.85
2023-01-22T07:32:48.425Z,6.95
2023-01-22T07:35:17.272Z,9.13
2023-01-22T07:37:53.328Z,6.13
2023-01-22T07:40:24.224Z,4.55
2023-01-22T07:42:52.948Z,6.78
2023-01-22T07:45:22.226Z,5.70
2023-01-22T07:47:54.553Z,7.65
2023-01-22T07:50:23.368Z,5.55
2023-01-22T07:52:53.060Z,3.83
2023-01-22T07:55:22.180Z,4.68
2023-01-22T07:57:50.393Z,6.63
2023-01-22T08:00:51.258Z,7.03
2023-01-22T08:03:20.678Z,4.88
2023-01-22T08:05:49.210Z,4.30
2023-01-22T08:08:21.367Z,4.63
2023-01-22T08:10:49.955Z,4.68
2023-01-22T08:13:18.469Z,5.18
2023-01-22T08:15:48.244Z,10.00
2023-01-22T08:18:19.037Z,8.38
2023-01-22T08:20:47.998Z,10.77
2023-01-22T08:23:18.195Z,8.35
2023-01-22T08:25:46.745Z,5.30
2023-01-22T08:28:15.355Z,5.88
2023-01-22T08:30:46.830Z,4.32
2023-01-22T08:33:16.398Z,6.20
2023-01-22T08:35:45.842Z,6.38
2023-01-22T08:38:14.435Z,8.15
2023-01-22T08:40:44.041Z,7.65
2023-01-22T08:43:12.248Z,6.10
2023-01-22T08:45:40.779Z,6.93
2023-01-22T08:48:09.014Z,7.28
2023-01-22T08:50:37.553Z,9.68
2023-01-22T08:53:05.886Z,6.57
2023-01-22T08:55:34.412Z,5.18
2023-01-22T08:58:04.075Z,6.03
2023-01-22T09:00:32.610Z,5.97
2023-01-22T09:03:01.329Z,4.35
2023-01-22T09:05:29.845Z,10.07
2023-01-22T09:07:58.071Z,5.00
2023-01-22T09:10:26.632Z,9.23
2023-01-22T09:12:55.244Z,6.22
2023-01-22T09:15:24.779Z,4.63
2023-01-22T09:17:53.456Z,7.32
2023-01-22T09:20:22.009Z,7.38
2023-01-22T09:22:50.790Z,6.47
2023-01-22T09:25:20.315Z,8.50
2023-01-22T09:27:48.560Z,7.43
2023-01-22T09:30:18.019Z,10.57
2023-01-22T09:32:47.716Z,10.32
2023-01-22T09:35:16.697Z,10.95
2023-01-22T09:37:45.362Z,10.40
2023-01-22T09:40:26.279Z,7.22
2023-01-22T09:43:21.751Z,13.23
2023-01-22T09:45:53.764Z,11.48
2023-01-22T09:48:24.987Z,7.47
2023-01-22T09:50:53.524Z,10.30
2023-01-22T09:53:22.515Z,6.20
2023-01-22T09:55:55.644Z,7.65
2023-01-22T09:58:26.517Z,8.38
2023-01-22T10:01:00.416Z,20.00
2023-01-22T10:03:35.768Z,15.80
2023-01-22T10:06:10.769Z,12.73
2023-01-22T10:08:55.177Z,13.13
2023-01-22T10:11:23.823Z,8.02
2023-01-22T10:13:57.340Z,7.78
2023-01-22T10:16:26.113Z,6.82
2023-01-22T10:19:02.579Z,6.80
2023-01-22T10:21:33.716Z,12.00
2023-01-22T10:24:02.159Z,11.88
2023-01-22T10:26:38.284Z,11.45
2023-01-22T10:29:09.520Z,6.53
2023-01-22T10:31:41.109Z,7.88
2023-01-22T10:34:17.385Z,5.57
2023-01-22T10:36:51.936Z,9.40
2023-01-22T10:43:01.771Z,6.63
2023-01-22T10:45:30.711Z,5.88
2023-01-22T10:48:10.304Z,6.50
2023-01-22T10:50:40.222Z,5.55
2023-01-22T10:53:21.352Z,5.30
2023-01-22T10:55:56.115Z,5.05
2023-01-22T10:58:28.791Z,4.90
2023-01-22T11:01:01.647Z,9.90
2023-01-22T11:03:37.029Z,5.25
2023-01-22T11:06:16.863Z,6.25
2023-01-22T11:08:51.086Z,5.82
2023-01-22T11:11:27.820Z,4.40
2023-01-22T11:14:02.013Z,5.82
2023-01-22T11:16:35.863Z,5.40
2023-01-22T11:19:10.652Z,6.00
2023-01-22T11:21:46.840Z,6.55
2023-01-22T11:24:20.658Z,8.18
2023-01-22T11:27:07.931Z,18.00
2023-01-22T11:29:59.172Z,16.80
2023-01-22T11:32:47.745Z,5.40
2023-01-22T11:35:25.253Z,6.60
2023-01-22T11:38:14.266Z,8.18
2023-01-22T11:41:08.125Z,9.98
2023-01-22T11:44:05.650Z,17.90
2023-01-22T11:46:51.056Z,13.13
2023-01-22T11:49:34.899Z,7.70
2023-01-22T11:52:20.832Z,7.68
2023-01-22T11:55:15.467Z,5.82
2023-01-22T11:57:50.751Z,7.38
2023-01-22T12:00:41.730Z,6.55
2023-01-22T12:03:54.703Z,7.18
2023-01-22T12:06:57.624Z,10.18
2023-01-22T12:09:35.274Z,6.40
2023-01-22T12:12:21.403Z,5.30
2023-01-22T12:15:19.514Z,6.55
2023-01-22T12:18:07.840Z,11.00
2023-01-22T12:21:08.193Z,7.18
2023-01-22T12:23:42.559Z,7.65
2023-01-22T12:26:18.899Z,7.22
2023-01-22T12:28:54.130Z,6.88
2023-01-22T12:31:27.895Z,10.98
2023-01-22T12:33:59.531Z,5.35
2023-01-22T12:36:29.509Z,5.05
2023-01-22T12:39:02.668Z,6.53
2023-01-22T12:41:45.351Z,8.63
2023-01-22T12:44:47.218Z,8.13
2023-01-22T12:47:22.480Z,5.13
2023-01-22T12:49:53.774Z,4.82
2023-01-22T12:52:35.719Z,5.55
2023-01-22T12:55:23.143Z,5.57
2023-01-22T12:57:51.939Z,7.25
2023-01-22T13:00:35.777Z,4.32
2023-01-22T13:03:31.033Z,5.85
2023-01-22T13:06:02.393Z,5.55
2023-01-22T13:08:43.059Z,6.25
2023-01-22T13:11:14.220Z,6.65
2023-01-22T13:13:49.461Z,5.68
2023-01-22T13:16:29.283Z,6.93
2023-01-22T13:19:00.611Z,7.80
2023-01-22T13:21:31.852Z,11.48
2023-01-22T13:24:03.781Z,10.38
2023-01-22T13:26:36.571Z,6.38
2023-01-22T13:29:19.504Z,7.63
2023-01-22T13:31:55.622Z,8.43
2023-01-22T13:34:24.477Z,16.40
2023-01-22T13:36:53.491Z,10.00
2023-01-22T13:39:27.642Z,4.18
2023-01-22T13:42:00.412Z,6.70
2023-01-22T13:44:35.831Z,5.00
2023-01-22T13:47:06.638Z,7.45
2023-01-22T13:49:42.787Z,4.90
2023-01-22T13:52:18.698Z,4.93
2023-01-22T13:54:55.610Z,3.78
2023-01-22T13:57:24.488Z,7.00
2023-01-22T13:59:57.723Z,4.90
2023-01-22T14:02:32.210Z,4.22
2023-01-22T14:05:01.295Z,6.38
2023-01-22T14:07:33.194Z,4.60
2023-01-22T14:10:16.946Z,6.15
2023-01-22T14:12:45.642Z,5.72
2023-01-22T14:15:20.514Z,4.85
2023-01-22T14:17:50.754Z,3.83
2023-01-22T14:20:20.264Z,5.93
2023-01-22T14:22:49.486Z,6.40
2023-01-22T14:25:18.127Z,4.57
2023-01-22T14:27:48.906Z,5.13
2023-01-22T14:30:19.847Z,3.58
2023-01-22T14:32:49.783Z,5.55
2023-01-22T14:35:20.527Z,15.18
2023-01-22T14:37:49.387Z,9.57
2023-01-22T14:40:20.123Z,8.23
2023-01-22T14:42:49.612Z,8.32
2023-01-22T14:45:20.285Z,6.10
2023-01-22T14:47:53.489Z,5.35
2023-01-22T14:50:23.320Z,7.70
2023-01-22T14:52:52.365Z,3.95
2023-01-22T14:55:21.137Z,7.60
2023-01-22T14:57:50.008Z,5.75
2023-01-22T15:00:20.372Z,4.97
2023-01-22T15:02:48.750Z,5.53
2023-01-22T15:05:18.649Z,8.32
2023-01-22T15:07:47.214Z,7.82
2023-01-22T15:10:15.889Z,5.43
2023-01-22T15:12:48.533Z,6.35
2023-01-22T15:15:18.713Z,11.05
2023-01-22T15:17:47.386Z,14.00
2023-01-22T15:20:16.354Z,8.80
2023-01-22T15:22:46.327Z,6.18
2023-01-22T15:25:14.880Z,5.32
2023-01-22T15:27:44.462Z,5.25
2023-01-22T15:30:14.669Z,4.88
2023-01-22T15:32:43.224Z,8.27
2023-01-22T15:35:11.911Z,6.75
2023-01-22T15:37:40.591Z,6.78
2023-01-22T15:40:12.439Z,6.60
2023-01-22T15:42:41.031Z,3.63
2023-01-22T15:45:11.191Z,6.63
2023-01-22T15:47:39.790Z,5.05
2023-01-22T15:50:09.605Z,6.63
2023-01-22T15:52:37.900Z,7.65
2023-01-22T15:55:07.942Z,6.28
2023-01-22T15:57:37.586Z,6.75
2023-01-22T16:00:07.908Z,5.25
2023-01-22T16:02:40.849Z,6.28
2023-01-22T16:05:09.942Z,7.95
2023-01-22T16:07:38.460Z,7.28
2023-01-22T16:10:07.715Z,7.03
2023-01-22T16:12:38.064Z,8.38
2023-01-22T16:15:08.430Z,5.72
2023-01-22T16:17:37.055Z,9.68
2023-01-22T16:20:07.881Z,4.88
2023-01-22T16:22:36.589Z,4.50
2023-01-22T16:25:05.799Z,5.63
2023-01-22T16:27:34.396Z,4.82
2023-01-22T16:30:04.341Z,4.78
2023-01-22T16:32:34.023Z,3.75
2023-01-22T16:35:02.576Z,6.85
2023-01-22T16:37:31.140Z,8.35
2023-01-22T16:39:59.681Z,6.35
2023-01-22T16:42:28.190Z,6.90
2023-01-22T16:44:56.771Z,8.20
2023-01-22T16:47:26.505Z,8.27
2023-01-22T16:49:54.758Z,7.50
2023-01-22T16:52:23.337Z,7.82
2023-01-22T16:54:52.286Z,5.20
2023-01-22T16:57:20.931Z,6.15
2023-01-22T16:59:49.526Z,7.18
2023-01-22T17:02:19.065Z,6.97
2023-01-22T17:04:49.040Z,6.82
2023-01-22T17:07:32.271Z,7.78
2023-01-22T17:10:01.933Z,6.33
2023-01-22T17:12:30.183Z,5.60
2023-01-22T17:14:58.863Z,7.30
2023-01-22T17:17:27.466Z,7.95
2023-01-22T17:19:57.237Z,7.03
2023-01-22T17:22:26.555Z,7.30
2023-01-22T17:24:55.327Z,4.60
2023-01-22T17:27:25.744Z,5.95
2023-01-22T17:29:54.261Z,7.32
2023-01-22T17:32:22.821Z,11.70
2023-01-22T17:34:51.406Z,14.00
2023-01-22T17:37:21.056Z,9.55
2023-01-22T17:39:51.424Z,7.05
2023-01-22T17:42:20.965Z,13.10
2023-01-22T17:44:49.197Z,10.93
2023-01-22T17:47:17.736Z,11.25
2023-01-22T17:49:48.152Z,11.02
2023-01-22T17:52:17.776Z,16.45
2023-01-22T17:54:47.419Z,16.92
2023-01-22T17:57:16.245Z,11.75
2023-01-22T17:59:44.652Z,14.23
2023-01-22T18:02:13.300Z,17.98
2023-01-22T18:04:41.909Z,12.93
2023-01-22T18:07:10.507Z,8.35
2023-01-22T18:09:39.038Z,6.28
2023-01-22T18:12:09.331Z,4.40
2023-01-22T18:14:38.032Z,7.20
2023-01-22T18:17:06.570Z,6.60
2023-01-22T18:19:35.087Z,7.45
2023-01-22T18:22:03.715Z,5.65
2023-01-22T18:24:34.123Z,6.60
2023-01-22T18:27:02.789Z,6.40
2023-01-22T18:29:32.441Z,7.70
2023-01-22T18:32:01.100Z,9.35
2023-01-22T18:34:29.684Z,7.18
2023-01-22T18:36:58.264Z,9.75
2023-01-22T18:39:26.817Z,10.77
2023-01-22T18:41:55.383Z,14.20
2023-01-22T18:44:27.529Z,9.10
2023-01-22T18:46:59.301Z,10.93
2023-01-22T18:49:28.953Z,8.52
2023-01-22T18:52:01.202Z,8.73
2023-01-22T18:54:29.916Z,12.05
2023-01-22T18:56:58.204Z,11.63
2023-01-22T18:59:26.892Z,9.52
2023-01-22T19:01:57.397Z,17.85
2023-01-22T19:04:27.919Z,14.98
2023-01-22T19:06:57.089Z,6.88
2023-01-22T19:09:26.913Z,9.18
2023-01-22T19:11:55.705Z,8.82
2023-01-22T19:14:24.279Z,10.30
2023-01-22T19:16:54.192Z,7.88
2023-01-22T19:19:24.228Z,7.13
2023-01-22T19:21:56.074Z,8.75
2023-01-22T19:24:28.115Z,11.23
2023-01-22T19:26:57.884Z,8.95
2023-01-22T19:29:27.160Z,9.90
2023-01-22T19:31:57.122Z,10.27
2023-01-22T19:34:30.277Z,12.32
2023-01-22T19:37:02.266Z,15.75
2023-01-22T19:39:31.470Z,12.10
2023-01-22T19:42:02.114Z,8.88
2023-01-22T19:44:30.818Z,8.48
2023-01-22T19:46:59.917Z,8.85
2023-01-22T19:49:30.175Z,15.23
2023-01-22T19:51:58.886Z,8.77
2023-01-22T19:54:27.758Z,8.00
2023-01-22T19:56:56.003Z,9.45
2023-01-22T19:59:25.163Z,10.57
2023-01-22T20:01:54.028Z,10.88
2023-01-22T20:04:25.224Z,17.48
2023-01-22T20:07:00.790Z,16.30
2023-01-22T20:09:30.664Z,14.38
2023-01-22T20:11:59.638Z,16.83
2023-01-22T20:14:31.492Z,14.00
2023-01-22T20:17:01.700Z,12.55
2023-01-22T20:19:30.520Z,18.15
2023-01-22T20:22:02.768Z,17.70
2023-01-22T20:24:31.316Z,17.40
2023-01-22T20:27:01.266Z,12.73
2023-01-22T20:29:29.720Z,15.00
2023-01-22T20:31:59.187Z,13.27
2023-01-22T20:34:27.690Z,16.80
2023-01-22T20:36:56.259Z,11.32
2023-01-22T20:39:25.965Z,15.60
2023-01-22T20:41:55.455Z,13.70
2023-01-22T20:44:24.284Z,14.77
2023-01-22T20:46:52.479Z,19.40
2023-01-22T20:49:21.076Z,12.52
2023-01-22T20:51:49.595Z,13.77
2023-01-22T20:54:19.087Z,12.70
2023-01-22T20:56:50.586Z,13.85
2023-01-22T20:59:19.688Z,17.88
2023-01-22T21:01:48.045Z,15.98
2023-01-22T21:04:17.948Z,14.85
2023-01-22T21:06:46.606Z,16.02
2023-01-22T21:09:15.250Z,20.48
2023-01-22T21:11:44.393Z,15.25
2023-01-22T21:14:17.826Z,24.60
2023-01-22T21:16:46.925Z,23.63
2023-01-22T21:19:18.722Z,17.33
2023-01-22T21:21:47.973Z,14.75
2023-01-22T21:24:16.732Z,21.42
2023-01-22T21:26:46.024Z,15.20
2023-01-22T21:29:18.482Z,10.60
2023-01-22T21:31:48.958Z,10.68
2023-01-22T21:34:19.584Z,13.55
2023-01-22T21:36:49.804Z,10.20
2023-01-22T21:39:20.753Z,15.07
2023-01-22T21:41:49.651Z,13.07
2023-01-22T21:44:38.215Z,18.67
2023-01-22T21:47:06.919Z,13.25
2023-01-22T21:50:22.015Z,14.52
2023-01-22T21:53:09.939Z,12.98
2023-01-22T21:55:38.270Z,13.25
2023-01-22T21:58:08.777Z,17.95
2023-01-22T22:00:38.645Z,16.35
2023-01-22T22:03:07.173Z,17.95
2023-01-22T22:05:35.442Z,17.27
2023-01-22T22:08:04.022Z,19.27
2023-01-22T22:10:32.254Z,18.88
2023-01-22T22:13:00.790Z,23.92
2023-01-22T22:15:29.036Z,14.63
2023-01-22T22:17:59.295Z,14.63
2023-01-22T22:20:29.015Z,15.23
2023-01-22T22:22:57.531Z,13.65
2023-01-22T22:25:26.254Z,12.48
2023-01-22T22:27:56.926Z,13.07
2023-01-22T22:30:25.357Z,16.02
2023-01-22T22:32:54.586Z,12.07
2023-01-22T22:35:24.214Z,13.15
2023-01-22T22:37:52.698Z,10.50
2023-01-22T22:40:21.268Z,12.07
2023-01-22T22:42:49.908Z,13.88
2023-01-22T22:45:18.276Z,16.73
2023-01-22T22:47:46.828Z,12.63
2023-01-22T22:50:15.068Z,10.52
2023-01-22T22:52:44.689Z,13.30
2023-01-22T22:55:13.186Z,13.40
2023-01-22T22:57:41.704Z,14.35
2023-01-22T23:00:13.185Z,10.00
2023-01-22T23:02:42.733Z,10.50
2023-01-22T23:05:11.421Z,18.02
2023-01-22T23:07:39.683Z,10.90
2023-01-22T23:10:28.575Z,13.13
2023-01-22T23:12:59.025Z,11.35
2023-01-22T23:15:29.252Z,16.35
2023-01-22T23:17:59.184Z,15.73
2023-01-22T23:20:28.709Z,15.43
2023-01-22T23:22:58.665Z,10.10
2023-01-22T23:25:28.261Z,12.30
2023-01-22T23:27:56.897Z,11.93
2023-01-22T23:30:26.884Z,10.27
2023-01-22T23:32:55.376Z,12.68
2023-01-22T23:35:23.911Z,12.63
2023-01-22T23:37:52.154Z,12.10
2023-01-22T23:40:21.078Z,12.50
2023-01-22T23:42:51.298Z,14.90
2023-01-22T23:45:19.840Z,10.82
2023-01-22T23:47:48.077Z,11.68
2023-01-22T23:50:17.733Z,9.13
2023-01-22T23:52:47.629Z,10.30
2023-01-22T23:55:16.540Z,11.38
2023-01-22T23:57:45.025Z,11.15
